• Join FlightAware (Why Join?)
  • Login
  • US Flag 
01:49PM EST


 

Airport Tracker/Info


-or-


 

Live Flight TrackerFlight Track Log ✈ DAL6201 ✈ 10-May-2013 ✈ KPIT - KLGA

Flight Track Log - Related Links

Times and Time Zones

All times are in EDT time to prevent confusion due to time zone crossing. See the DAL6201 flight status page for this flight to view local times or setup timezone preferences in your user account.

Time Position Orientation Groundspeed Altitude Reporting Facility
EDT Latitude Longitude Course Direction KTS MPH feet Rate Location/Type
07:30PM 40.5525 -80.2661 74° East 248 285 4,000  Level Cleveland Center
07:31PM 40.5731 -80.1594 76° East 278 320 4,900 660 Climbing Cleveland Center
07:32PM 40.5808 -80.0556 84° East 290 334 5,400 1,800 Climbing Cleveland Center
07:33PM 40.5947 -79.9269 82° East 304 350 8,600 3,000 Climbing Cleveland Center
07:34PM 40.6067 -79.8064 83° East 318 366 11,400 2,640 Climbing Cleveland Center
07:35PM 40.5501 -79.3829 80° East  Level Estimated
07:35PM 40.6181 -79.6806 83° East 331 381 13,900  Level Cleveland Center
07:36PM 40.5796 -79.2460 74° East  Level FlightAware Approximate
07:36PM 40.6294 -79.5544 83° East 343 395 15,500  Level Cleveland Center
07:37PM 40.6469 -79.4172 80° East 360 414 17,300 1,860 Climbing Cleveland Center
07:38PM 40.6747 -79.2828 75° East 371 427 19,300 1,920 Climbing Cleveland Center
07:39PM 40.7000 -79.1397 77° East 385 443 21,200 1,680 Climbing Cleveland Center
07:40PM 40.7253 -78.9914 77° East 396 456 22,700 1,380 Climbing Cleveland Center
07:41PM 40.7439 -78.8375 81° East 413 475 24,000 1,380 Climbing Cleveland Center
07:42PM 40.7642 -78.6806 80° East 423 487 25,500 1,200 Climbing Cleveland Center
07:44PM 40.8033 -78.3958 80° East 466 536 27,300 960 Climbing New York Center
07:45PM 40.8264 -78.2311 79° East 466 536 28,200 780 Climbing New York Center
07:46PM 40.8492 -78.0633 80° East 466 536 29,000 360 Climbing New York Center
07:47PM 40.8700 -77.8925 81° East 466 536 29,000  Level New York Center
07:48PM 40.8906 -77.7244 81° East 466 536 29,000 -360 Level New York Center
07:49PM 40.9147 -77.5594 79° East 461 531 28,400 -1,140 Descending New York Center
07:50PM 40.9342 -77.3992 81° East 455 524 26,800 -1,620 Descending New York Center
07:51PM 40.9531 -77.2444 81° East 438 504 25,300 -1,440 Descending New York Center
07:52PM 40.9700 -77.0864 82° East 438 504 23,900 -1,380 Descending New York Center
07:53PM 40.9908 -76.9289 80° East 433 498 22,500 -1,320 Descending New York Center
07:54PM 41.0092 -76.7767 81° East 427 491 21,400 -1,140 Descending New York Center
07:55PM 41.0144 -76.6258 87° East 417 480 20,300 -1,140 Descending New York Center
07:56PM 40.9794 -76.4881 109° East 397 457 19,200 -660 Descending New York Center
07:57PM 40.9536 -76.3761 107° East 379 436 19,000 -480 Descending New York Center
07:58PM 40.9403 -76.2183 96° East 377 434 18,300 -840 Descending New York Center
07:59PM 40.9339 -76.0806 93° East 383 441 17,300 -960 Descending New York Center
08:00PM 40.9272 -75.9536 94° East 388 447 16,400 -1,260 Descending New York Center
08:01PM 40.8939 -75.8083 107° East 378 435 14,900 -1,500 Descending New York Center
08:02PM 40.8486 -75.6925 117° Southeast 358 412 13,400 -960 Descending New York Center
08:03PM 40.8031 -75.5822 119° Southeast 348 400 13,000 -240 Descending New York Center
08:04PM 40.7597 -75.4694 117° Southeast 348 400 13,000 -60 Level New York Center
08:05PM 40.7103 -75.3539 119° Southeast 348 400 12,900 -660 Descending New York Center
08:06PM 40.6644 -75.2414 118° Southeast 348 400 11,800 -1,020 Descending New York Center
08:07PM 40.6206 -75.1347 118° Southeast 340 391 10,900 -900 Descending New York Center
08:08PM 40.5803 -75.0364 118° Southeast 340 391 10,000 -480 Descending New York Center
08:09PM 40.5408 -74.9167 113° Southeast 330 380 10,000  Level New York Center
08:10PM 40.5167 -74.8167 108° East 333 383 10,000  Level New York TRACON
08:11PM 40.4833 -74.7000 111° Southeast 333 383 10,000  Level New York TRACON
08:12PM 40.4500 -74.5833 111° Southeast 333 383 10,000  Level New York TRACON
08:13PM 40.4333 -74.4667 101° East 331 381 10,000  Level New York TRACON
08:14PM 40.4333 -74.3500 90° East 335 386 10,000 -480 Level New York TRACON
08:15PM 40.4833 -74.2500 57° Northeast 305 351 9,100 -1,380 Descending New York TRACON
08:16PM 40.5167 -74.1500 66° East 297 342 7,300 -1,860 Descending New York TRACON
08:17PM 40.5667 -74.0833 45° Northeast 295 339 5,500 -1,680 Descending New York TRACON
08:18PM 40.6500 -74.0500 17° North 280 322 4,000 -780 Descending New York TRACON
08:19PM 40.7167 -74.0167 21° North 278 320 4,000 -300 Level New York TRACON
08:20PM 40.8000 -73.9833 17° North 283 326 3,500 -540 Descending New York TRACON
08:21PM 40.8500 -73.9333 37° Northeast 241 277 3,000 -540 Descending New York TRACON
08:22PM 40.8833 -73.8667 57° Northeast 203 234 2,500 -780 Descending New York TRACON
08:23PM 40.8667 -73.8167 114° Southeast 169 194 1,500 -720 Descending New York TRACON
08:24PM 40.8333 -73.8333 201° Southwest 123 142 1,100 -600 Descending New York TRACON
08:25PM 40.8000 -73.8500 201° Southwest 128 147 400 -660 Descending New York TRACON
08:27PM 40.7667 -73.8667 180° South  Level FlightAware Approximate
08:34PM 40.7772 -73.8726 180° South  Level Estimated